Time;durP1;ratioP1;P1;durP2;ratioP2;P2;SDS_P1;SDS_P2;PMS_P1;PMS_P2;Temp;Humidity;BMP_temperature;BMP_pressure;BME280_temperature;BME280_humidity;BME280_pressure;Samples;Min_cycle;Max_cycle;Signal;HPM_P1;HPM_P2
2021/03/07 00:00:38;;;;;;;8.70;4.15;;;0.20;87.60;;;;;;4972224;28;20042;-83
2021/03/07 00:03:04;;;;;;;12.77;4.50;;;0.20;87.60;;;;;;4935693;28;20473;-83
2021/03/07 00:05:30;;;;;;;7.45;4.15;;;0.10;87.60;;;;;;4968566;28;20694;-83
2021/03/07 00:07:56;;;;;;;16.10;4.30;;;0.00;87.50;;;;;;4953462;28;20035;-84
2021/03/07 00:10:22;;;;;;;10.52;4.72;;;0.00;87.80;;;;;;4954225;28;20166;-83
2021/03/07 00:12:50;;;;;;;13.73;4.35;;;-0.10;87.70;;;;;;4938485;28;20050;-84
2021/03/07 00:15:19;;;;;;;13.40;5.20;;;-0.10;87.80;;;;;;4958398;28;20227;-83
2021/03/07 00:17:47;;;;;;;9.95;4.88;;;-0.10;87.90;;;;;;4971762;28;20486;-83
2021/03/07 00:20:15;;;;;;;14.73;6.05;;;-0.20;88.00;;;;;;4980322;28;20081;-83
2021/03/07 00:22:41;;;;;;;13.15;5.07;;;-0.20;88.20;;;;;;4969947;28;20054;-83
2021/03/07 00:25:10;;;;;;;13.60;5.05;;;-0.20;88.40;;;;;;4934306;28;20049;-84
2021/03/07 00:27:37;;;;;;;16.48;5.68;;;-0.20;88.50;;;;;;4953023;28;21794;-83
2021/03/07 00:30:15;;;;;;;12.20;5.80;;;-0.10;88.50;;;;;;4971907;28;20043;-83
2021/03/07 00:32:43;;;;;;;11.57;5.88;;;-0.10;88.90;;;;;;4984845;28;20034;-83
2021/03/07 00:35:09;;;;;;;15.52;5.10;;;-0.10;89.00;;;;;;4970334;28;20038;-83
2021/03/07 00:37:36;;;;;;;13.50;4.88;;;0.00;89.30;;;;;;4948529;28;20051;-84
2021/03/07 00:40:02;;;;;;;13.02;5.05;;;0.00;89.30;;;;;;4971536;28;20038;-83
2021/03/07 00:42:28;;;;;;;17.33;6.88;;;0.10;89.30;;;;;;4968963;28;20409;-83
2021/03/07 00:44:54;;;;;;;10.73;5.43;;;0.10;89.20;;;;;;4936566;28;20034;-83
2021/03/07 00:47:20;;;;;;;15.20;5.32;;;0.10;89.30;;;;;;4952628;28;20378;-83
2021/03/07 00:49:46;;;;;;;14.55;6.55;;;0.20;89.60;;;;;;4969839;28;20104;-83
2021/03/07 00:52:11;;;;;;;11.15;5.80;;;0.20;89.40;;;;;;4968949;28;20529;-83
2021/03/07 00:54:37;;;;;;;9.10;5.43;;;0.20;89.30;;;;;;4956140;28;20046;-83
2021/03/07 00:57:03;;;;;;;12.60;4.90;;;0.30;89.40;;;;;;4942988;28;20042;-83
2021/03/07 00:59:30;;;;;;;12.73;5.30;;;0.30;89.40;;;;;;4956211;28;20507;-84
2021/03/07 01:01:55;;;;;;;8.80;4.75;;;0.40;89.60;;;;;;4955012;28;20039;-83
2021/03/07 01:04:21;;;;;;;12.90;5.47;;;0.40;89.50;;;;;;4952609;28;20317;-83
2021/03/07 01:06:47;;;;;;;9.68;4.85;;;0.40;89.40;;;;;;4950920;28;20042;-84
2021/03/07 01:09:13;;;;;;;9.23;5.50;;;0.40;89.40;;;;;;4954301;28;20046;-84
2021/03/07 01:11:39;;;;;;;16.83;5.97;;;0.40;89.50;;;;;;4970393;28;20080;-84
2021/03/07 01:14:06;;;;;;;10.82;5.15;;;0.50;89.60;;;;;;4964700;28;20479;-84
2021/03/07 01:16:32;;;;;;;9.93;5.38;;;0.50;89.50;;;;;;4956188;28;20406;-83
2021/03/07 01:18:58;;;;;;;13.23;5.03;;;0.50;89.70;;;;;;4949843;28;20455;-84
2021/03/07 01:21:24;;;;;;;15.10;5.25;;;0.60;89.80;;;;;;4967845;28;20034;-84
2021/03/07 01:23:50;;;;;;;10.63;5.80;;;0.60;89.60;;;;;;4968626;28;21457;-84
2021/03/07 01:26:16;;;;;;;9.88;4.47;;;0.60;90.00;;;;;;4982726;28;20791;-84
2021/03/07 01:28:41;;;;;;;10.05;5.15;;;0.70;89.60;;;;;;4967581;28;20047;-83
2021/03/07 01:31:07;;;;;;;9.75;4.97;;;0.70;89.50;;;;;;4949299;28;20133;-83
2021/03/07 01:33:33;;;;;;;10.77;5.22;;;0.70;89.50;;;;;;4938047;28;20041;-83
2021/03/07 01:36:02;;;;;;;10.73;4.78;;;0.70;89.50;;;;;;4953138;28;20031;-83
2021/03/07 01:38:30;;;;;;;7.65;4.38;;;0.80;89.60;;;;;;4951304;28;20272;-84
2021/03/07 01:40:57;;;;;;;9.30;5.32;;;0.80;89.60;;;;;;4954495;28;20054;-84
2021/03/07 01:43:23;;;;;;;9.00;4.35;;;0.90;89.80;;;;;;4935225;28;20066;-84
2021/03/07 01:45:51;;;;;;;10.32;4.40;;;0.90;89.80;;;;;;4949205;28;20045;-83
2021/03/07 01:48:17;;;;;;;13.27;4.72;;;0.90;89.70;;;;;;4969455;28;20141;-84
2021/03/07 01:50:46;;;;;;;7.85;4.60;;;0.90;89.50;;;;;;4966190;28;20109;-84
2021/03/07 01:53:12;;;;;;;11.80;4.63;;;1.00;89.50;;;;;;4967317;28;20070;-84
2021/03/07 01:55:39;;;;;;;12.63;4.72;;;0.90;89.40;;;;;;4952079;28;20137;-84
2021/03/07 01:58:13;;;;;;;17.83;5.55;;;0.90;89.50;;;;;;4952751;28;20203;-84
2021/03/07 02:00:39;;;;;;;10.48;4.35;;;1.00;89.50;;;;;;4984945;28;20433;-84
2021/03/07 02:03:05;;;;;;;10.20;4.70;;;0.90;89.30;;;;;;4952910;28;20395;-84
2021/03/07 02:05:32;;;;;;;14.02;4.53;;;0.90;89.40;;;;;;4964630;28;20121;-83
2021/03/07 02:07:59;;;;;;;10.10;4.40;;;0.90;89.50;;;;;;4923682;28;20074;-84
2021/03/07 02:10:31;;;;;;;11.30;5.10;;;0.90;89.50;;;;;;4966422;28;20048;-84
2021/03/07 02:13:34;;;;;;;12.02;4.38;;;0.80;89.40;;;;;;4969513;28;20342;-84
2021/03/07 02:16:04;;;;;;;11.43;4.40;;;0.80;89.50;;;;;;4968914;28;20117;-84
2021/03/07 02:18:37;;;;;;;9.85;4.93;;;0.70;89.30;;;;;;4968119;28;20304;-84
2021/03/07 02:21:09;;;;;;;7.47;4.72;;;0.60;89.30;;;;;;4976903;28;20038;-83
2021/03/07 02:23:59;;;;;;;11.27;4.53;;;0.60;89.20;;;;;;4985265;28;20548;-83
2021/03/07 02:26:25;;;;;;;8.40;4.07;;;0.50;89.30;;;;;;4981961;28;20449;-84
2021/03/07 02:28:51;;;;;;;10.27;4.93;;;0.40;89.20;;;;;;4969397;28;20763;-84
2021/03/07 02:31:21;;;;;;;9.35;4.50;;;0.40;89.40;;;;;;4938436;28;20077;-83
2021/03/07 02:33:48;;;;;;;9.43;4.75;;;0.30;89.40;;;;;;4970259;28;20031;-83
2021/03/07 02:36:24;;;;;;;7.93;4.30;;;0.30;89.20;;;;;;4937079;28;20038;-84
2021/03/07 02:38:53;;;;;;;10.63;4.30;;;0.20;89.20;;;;;;4971677;28;20046;-84
2021/03/07 02:41:19;;;;;;;9.93;4.53;;;0.10;89.30;;;;;;4958047;28;20061;-84
2021/03/07 02:43:52;;;;;;;8.32;3.90;;;0.10;89.40;;;;;;4968786;28;20511;-83
2021/03/07 02:46:19;;;;;;;9.35;4.43;;;0.00;89.60;;;;;;4971035;28;20042;-83
2021/03/07 02:48:51;;;;;;;5.80;3.28;;;0.00;89.50;;;;;;4971193;28;20033;-83
2021/03/07 02:51:17;;;;;;;11.30;4.45;;;0.00;89.60;;;;;;4970370;28;20477;-84
2021/03/07 02:53:43;;;;;;;13.52;5.00;;;-0.20;89.60;;;;;;4950083;28;20039;-83
2021/03/07 02:56:13;;;;;;;12.70;4.57;;;-0.10;89.60;;;;;;4961253;28;20031;-82
2021/03/07 02:58:42;;;;;;;10.63;4.72;;;-0.20;89.70;;;;;;4974364;28;20400;-83
2021/03/07 03:01:11;;;;;;;9.13;4.38;;;-0.20;89.80;;;;;;4975559;28;20035;-83
2021/03/07 03:03:41;;;;;;;7.55;4.95;;;-0.10;89.90;;;;;;4973394;28;20057;-83
2021/03/07 03:06:09;;;;;;;12.05;5.55;;;-0.20;90.00;;;;;;4975699;28;20038;-83
2021/03/07 03:08:36;;;;;;;6.90;4.82;;;-0.20;90.10;;;;;;4972275;28;20038;-83
2021/03/07 03:11:02;;;;;;;8.63;5.00;;;-0.10;90.20;;;;;;4974407;28;20227;-83
2021/03/07 03:13:34;;;;;;;9.52;4.80;;;-0.10;90.20;;;;;;4996273;28;20061;-83
2021/03/07 03:16:01;;;;;;;7.28;4.97;;;-0.10;90.20;;;;;;4978941;28;20489;-83
2021/03/07 03:18:29;;;;;;;13.63;5.82;;;0.00;90.20;;;;;;4973637;28;20687;-84
2021/03/07 03:21:02;;;;;;;14.27;4.85;;;0.00;90.30;;;;;;4975420;28;20580;-83
2021/03/07 03:23:29;;;;;;;9.30;5.30;;;0.00;90.40;;;;;;4973269;28;20045;-83
2021/03/07 03:25:55;;;;;;;10.13;5.28;;;0.10;90.30;;;;;;4956178;28;20030;-84
2021/03/07 03:28:22;;;;;;;10.55;5.20;;;0.10;90.30;;;;;;4956026;28;20400;-83
2021/03/07 03:30:48;;;;;;;11.18;5.55;;;0.20;90.40;;;;;;4986393;28;20735;-83
2021/03/07 03:33:14;;;;;;;9.85;5.47;;;0.20;90.50;;;;;;4972233;28;20043;-83
2021/03/07 03:35:40;;;;;;;10.52;5.32;;;0.20;90.50;;;;;;4988879;28;20031;-86
2021/03/07 03:38:06;;;;;;;9.57;4.82;;;0.30;90.60;;;;;;4974427;28;20039;-86
2021/03/07 03:40:33;;;;;;;8.90;5.20;;;0.30;90.60;;;;;;4944259;28;20839;-84
2021/03/07 03:43:05;;;;;;;8.40;4.22;;;0.30;90.50;;;;;;4955748;28;20505;-83
2021/03/07 03:45:33;;;;;;;9.05;5.05;;;0.40;90.50;;;;;;4971136;28;20126;-83
2021/03/07 03:48:07;;;;;;;9.77;4.88;;;0.40;90.50;;;;;;4956306;28;20043;-84
2021/03/07 03:50:37;;;;;;;7.90;4.50;;;0.40;90.50;;;;;;4958558;28;20320;-83
2021/03/07 03:53:05;;;;;;;7.70;4.78;;;0.40;90.50;;;;;;4973133;28;20042;-84
2021/03/07 03:55:32;;;;;;;13.68;4.82;;;0.40;90.50;;;;;;4971642;28;20176;-84
2021/03/07 03:58:06;;;;;;;13.52;4.80;;;0.40;90.50;;;;;;4954676;28;20041;-84
2021/03/07 04:00:34;;;;;;;9.02;4.97;;;0.50;90.50;;;;;;4974115;28;20084;-83
2021/03/07 04:03:02;;;;;;;11.15;4.80;;;0.50;90.50;;;;;;4971444;28;20038;-83
2021/03/07 04:05:29;;;;;;;6.38;4.70;;;0.50;90.60;;;;;;4969274;28;20098;-84
2021/03/07 04:07:55;;;;;;;8.20;4.38;;;0.60;90.60;;;;;;4973967;28;20544;-84
2021/03/07 04:10:22;;;;;;;12.50;4.63;;;0.60;90.60;;;;;;4939701;28;20117;-83
2021/03/07 04:12:50;;;;;;;6.90;4.18;;;0.60;90.60;;;;;;4971627;28;20596;-83
2021/03/07 04:15:19;;;;;;;10.25;4.82;;;0.60;90.60;;;;;;4966139;28;20085;-84
2021/03/07 04:17:48;;;;;;;11.30;4.18;;;0.70;90.60;;;;;;4970289;28;20126;-83
2021/03/07 04:20:14;;;;;;;10.18;4.50;;;0.70;90.60;;;;;;4971960;28;20490;-84
2021/03/07 04:22:40;;;;;;;7.70;4.18;;;0.70;90.60;;;;;;4969228;28;20623;-83
2021/03/07 04:25:09;;;;;;;12.45;4.68;;;0.80;90.60;;;;;;4971503;28;20054;-84
2021/03/07 04:27:36;;;;;;;10.85;4.55;;;0.70;90.50;;;;;;4971258;28;20769;-84
2021/03/07 04:30:05;;;;;;;5.90;4.35;;;0.80;90.60;;;;;;4937996;28;20038;-83
2021/03/07 04:32:31;;;;;;;12.93;4.35;;;0.80;90.60;;;;;;4985352;28;20034;-84
2021/03/07 04:34:58;;;;;;;13.52;4.63;;;0.80;90.50;;;;;;4967791;28;20056;-83
2021/03/07 04:37:24;;;;;;;7.50;4.13;;;0.80;90.50;;;;;;4970867;28;20149;-85
2021/03/07 04:39:50;;;;;;;7.00;3.80;;;0.90;90.50;;;;;;4961578;28;20039;-84
2021/03/07 04:42:16;;;;;;;7.82;4.20;;;0.90;90.50;;;;;;4956811;28;20510;-84
2021/03/07 04:44:42;;;;;;;6.78;3.95;;;0.90;90.40;;;;;;4971620;28;20089;-84
2021/03/07 04:47:08;;;;;;;8.63;3.90;;;0.90;90.40;;;;;;4955725;28;20117;-83
2021/03/07 04:49:34;;;;;;;10.20;4.35;;;1.00;90.40;;;;;;4965890;28;20453;-84
2021/03/07 04:51:59;;;;;;;6.53;3.75;;;1.00;90.40;;;;;;4956204;28;20034;-83
2021/03/07 04:54:25;;;;;;;8.88;4.00;;;1.10;90.40;;;;;;4972442;28;20046;-84
2021/03/07 04:56:51;;;;;;;9.65;4.50;;;1.00;90.40;;;;;;4969267;28;20174;-83
2021/03/07 04:59:17;;;;;;;5.63;3.60;;;1.00;90.40;;;;;;4959283;28;20441;-83
2021/03/07 05:01:43;;;;;;;6.05;3.90;;;1.10;90.30;;;;;;4953955;28;20502;-83
2021/03/07 05:04:10;;;;;;;9.77;4.28;;;1.10;90.60;;;;;;4956077;28;20046;-83
2021/03/07 05:06:41;;;;;;;19.52;4.20;;;1.10;90.30;;;;;;4952044;28;20045;-83
2021/03/07 05:09:08;;;;;;;5.75;4.07;;;1.10;90.30;;;;;;4940661;28;20076;-84
2021/03/07 05:11:35;;;;;;;11.60;4.85;;;1.10;90.30;;;;;;4972681;28;20435;-84
2021/03/07 05:14:01;;;;;;;11.45;3.92;;;1.10;90.30;;;;;;4975926;28;20602;-84
2021/03/07 05:16:29;;;;;;;6.72;3.92;;;1.10;90.30;;;;;;4955098;28;20038;-84
2021/03/07 05:18:55;;;;;;;8.77;4.10;;;1.10;90.30;;;;;;4958522;28;20309;-85
2021/03/07 05:21:21;;;;;;;12.40;4.53;;;1.10;90.50;;;;;;4972428;28;20037;-86
2021/03/07 05:23:47;;;;;;;6.57;3.53;;;1.10;90.30;;;;;;4973890;28;20069;-86
2021/03/07 05:26:13;;;;;;;8.57;3.83;;;1.20;90.30;;;;;;4952121;28;20121;-86
2021/03/07 05:28:39;;;;;;;8.57;3.92;;;1.20;90.30;;;;;;4954108;28;20055;-86
2021/03/07 05:31:05;;;;;;;10.25;4.72;;;1.20;90.30;;;;;;4958965;28;21461;-85
2021/03/07 05:33:31;;;;;;;9.07;4.07;;;1.20;90.20;;;;;;4970775;28;20043;-86
2021/03/07 05:35:57;;;;;;;7.38;3.92;;;1.20;90.30;;;;;;4958012;28;20038;-86
2021/03/07 05:38:23;;;;;;;6.95;4.00;;;1.20;90.30;;;;;;4954989;28;20030;-84
2021/03/07 05:40:49;;;;;;;7.03;3.75;;;1.20;90.30;;;;;;4954898;28;20038;-85
2021/03/07 05:43:15;;;;;;;8.18;4.03;;;1.30;90.30;;;;;;4939845;28;20386;-85
2021/03/07 05:45:41;;;;;;;7.55;3.97;;;1.20;90.30;;;;;;4955124;28;20193;-85
2021/03/07 05:48:10;;;;;;;13.00;4.10;;;1.30;90.30;;;;;;4956407;28;20509;-85
2021/03/07 05:50:36;;;;;;;10.00;3.58;;;1.30;90.40;;;;;;4967890;28;20096;-86
2021/03/07 05:53:02;;;;;;;10.48;3.65;;;1.30;90.40;;;;;;4957506;28;20037;-85
2021/03/07 05:55:29;;;;;;;10.68;3.63;;;1.30;90.40;;;;;;4960159;28;20689;-85
2021/03/07 05:57:59;;;;;;;14.43;4.22;;;1.30;90.40;;;;;;4977446;28;20351;-85
2021/03/07 06:00:25;;;;;;;7.78;3.63;;;1.40;90.50;;;;;;4963634;28;20685;-86
2021/03/07 06:02:52;;;;;;;8.10;3.80;;;1.40;90.50;;;;;;4951802;28;20065;-85
2021/03/07 06:05:19;;;;;;;7.07;3.65;;;1.40;90.40;;;;;;4956925;28;20073;-85
2021/03/07 06:07:48;;;;;;;9.43;3.30;;;1.40;90.40;;;;;;4957576;28;20046;-86
2021/03/07 06:10:22;;;;;;;6.43;3.30;;;1.40;90.30;;;;;;4957740;28;20050;-86
2021/03/07 06:12:59;;;;;;;5.75;2.95;;;1.50;90.30;;;;;;4974685;28;20030;-85
2021/03/07 06:15:25;;;;;;;6.55;3.35;;;1.50;90.30;;;;;;4957030;28;20077;-86
2021/03/07 06:17:50;;;;;;;6.15;2.75;;;1.50;90.30;;;;;;4959012;28;20034;-87
2021/03/07 06:20:18;;;;;;;8.60;3.05;;;1.50;90.20;;;;;;4960903;28;20039;-86
2021/03/07 06:22:59;;;;;;;8.18;3.15;;;1.60;90.20;;;;;;4941968;28;20049;-86
2021/03/07 06:25:26;;;;;;;7.90;2.85;;;1.50;90.20;;;;;;4959573;28;20046;-86
2021/03/07 06:27:53;;;;;;;8.40;3.15;;;1.60;90.10;;;;;;4975008;28;20048;-85
2021/03/07 06:30:23;;;;;;;7.88;2.90;;;1.70;90.20;;;;;;4979751;28;20039;-87
2021/03/07 06:32:52;;;;;;;9.57;2.50;;;1.70;90.10;;;;;;4979576;28;20522;-86
2021/03/07 06:35:22;;;;;;;5.35;2.50;;;1.70;90.00;;;;;;4974417;28;20030;-86
2021/03/07 06:38:02;;;;;;;5.70;2.63;;;1.80;90.00;;;;;;4977163;28;20044;-87
2021/03/07 06:40:43;;;;;;;5.75;2.92;;;1.80;89.90;;;;;;4966629;28;20049;-85
2021/03/07 06:43:18;;;;;;;6.63;2.63;;;1.80;89.90;;;;;;5001921;28;20216;-86
2021/03/07 06:45:45;;;;;;;6.60;2.83;;;1.80;89.70;;;;;;5004390;28;20120;-86
2021/03/07 06:48:11;;;;;;;6.70;2.80;;;1.80;89.70;;;;;;5001522;28;20196;-86
2021/03/07 06:50:58;;;;;;;4.40;2.50;;;1.90;89.60;;;;;;4983661;28;20030;-87
2021/03/07 06:53:37;;;;;;;4.55;2.85;;;1.90;89.60;;;;;;4969267;28;20603;-86
2021/03/07 06:56:05;;;;;;;5.63;2.83;;;1.90;89.60;;;;;;4965120;28;20046;-86
2021/03/07 06:58:31;;;;;;;4.50;2.85;;;1.90;89.50;;;;;;4972595;28;20045;-87
2021/03/07 07:00:57;;;;;;;4.60;2.90;;;1.90;89.50;;;;;;4954207;28;20042;-87
2021/03/07 07:03:24;;;;;;;8.68;3.00;;;1.90;89.50;;;;;;4990330;28;20042;-87
2021/03/07 07:05:52;;;;;;;11.48;3.08;;;2.00;89.50;;;;;;4948315;28;20053;-87
2021/03/07 07:08:50;;;;;;;9.10;3.10;;;2.00;89.50;;;;;;4980397;28;20046;-87
2021/03/07 07:11:16;;;;;;;4.25;2.83;;;1.90;89.40;;;;;;4921783;28;21024;-87
2021/03/07 07:13:47;;;;;;;5.80;3.03;;;2.00;89.40;;;;;;4984086;28;20040;-87
2021/03/07 07:16:14;;;;;;;6.22;3.08;;;2.00;89.50;;;;;;4965947;28;20129;-88
2021/03/07 07:18:43;;;;;;;7.40;3.25;;;2.00;89.40;;;;;;4974533;28;20070;-88
2021/03/07 07:21:14;;;;;;;5.30;2.50;;;2.00;89.40;;;;;;4990146;28;20030;-88
2021/03/07 07:23:40;;;;;;;6.72;2.85;;;2.00;89.50;;;;;;5001743;28;20034;-87
2021/03/07 07:26:07;;;;;;;5.45;2.70;;;2.00;89.40;;;;;;4951415;28;20042;-88
2021/03/07 07:28:34;;;;;;;5.57;3.13;;;2.00;89.40;;;;;;4968385;28;20625;-87
2021/03/07 07:31:00;;;;;;;7.68;2.88;;;2.00;89.40;;;;;;4995029;28;20083;-88
2021/03/07 07:33:51;;;;;;;8.73;2.85;;;2.10;89.50;;;;;;4994335;28;20041;-88
2021/03/07 07:36:32;;;;;;;5.50;3.40;;;2.10;89.50;;;;;;4983485;28;20607;-87
2021/03/07 07:39:00;;;;;;;7.63;3.08;;;2.10;89.40;;;;;;4991927;28;20042;-88
2021/03/07 07:41:32;;;;;;;6.30;3.00;;;2.10;89.40;;;;;;4995131;28;20041;-87
2021/03/07 07:43:59;;;;;;;5.65;2.97;;;2.10;89.30;;;;;;4987680;28;20045;-88
2021/03/07 07:46:25;;;;;;;5.10;2.97;;;2.20;89.30;;;;;;4974689;28;20034;-88
2021/03/07 07:48:54;;;;;;;7.75;2.90;;;2.20;89.20;;;;;;4971480;28;20124;-88
2021/03/07 07:51:39;;;;;;;8.38;3.42;;;2.20;89.20;;;;;;4973592;28;20042;-87
2021/03/07 07:54:07;;;;;;;7.95;3.47;;;2.30;89.20;;;;;;4987667;28;20054;-87
2021/03/07 07:56:43;;;;;;;5.00;3.03;;;2.30;89.20;;;;;;4989460;28;20100;-87
2021/03/07 07:59:11;;;;;;;4.13;2.88;;;2.30;89.20;;;;;;4985524;28;20126;-87
2021/03/07 08:01:56;;;;;;;6.07;2.88;;;2.30;89.20;;;;;;4983226;28;20034;-87
2021/03/07 08:04:28;;;;;;;7.38;2.90;;;2.40;89.10;;;;;;4981092;28;20053;-87
2021/03/07 08:06:55;;;;;;;5.72;2.65;;;2.40;89.10;;;;;;4982766;28;20073;-86
2021/03/07 08:09:37;;;;;;;4.18;2.97;;;2.40;88.90;;;;;;4983115;28;20548;-88
2021/03/07 08:12:44;;;;;;;5.25;2.70;;;2.40;88.70;;;;;;4980867;28;20034;-87
2021/03/07 08:15:25;;;;;;;7.68;2.63;;;2.50;88.50;;;;;;4980528;28;20362;-87
2021/03/07 08:17:55;;;;;;;7.82;3.10;;;2.50;88.10;;;;;;4961968;28;20133;-87
2021/03/07 08:20:42;;;;;;;8.77;2.97;;;2.60;88.10;;;;;;4964050;28;20113;-88
2021/03/07 08:23:12;;;;;;;6.50;2.97;;;2.60;88.10;;;;;;4979552;28;20038;-88
2021/03/07 08:25:50;;;;;;;4.85;2.75;;;2.60;87.90;;;;;;4969738;28;20145;-87
2021/03/07 08:28:31;;;;;;;6.32;3.03;;;2.70;87.80;;;;;;4968661;28;20085;-87
2021/03/07 08:31:01;;;;;;;3.60;2.88;;;2.70;87.50;;;;;;4969461;28;22096;-88
2021/03/07 08:33:27;;;;;;;7.57;3.10;;;2.70;87.40;;;;;;4986793;28;20038;-87
2021/03/07 08:36:12;;;;;;;8.02;2.75;;;2.70;87.20;;;;;;4982876;28;20147;-87
2021/03/07 08:39:01;;;;;;;7.78;3.35;;;2.70;87.00;;;;;;4999684;28;20060;-88
2021/03/07 08:41:53;;;;;;;7.05;3.90;;;2.70;86.80;;;;;;4980996;28;20532;-87
2021/03/07 08:44:18;;;;;;;5.38;3.28;;;2.80;86.60;;;;;;4977319;28;20448;-86
2021/03/07 08:46:47;;;;;;;8.88;3.90;;;2.80;86.50;;;;;;4951103;28;20210;-87
2021/03/07 08:49:20;;;;;;;10.93;3.83;;;2.90;86.20;;;;;;5004030;28;20688;-88
2021/03/07 08:51:49;;;;;;;5.60;3.67;;;2.80;86.10;;;;;;4983023;28;20050;-85
2021/03/07 08:54:21;;;;;;;4.22;3.30;;;2.90;86.10;;;;;;4990372;28;20060;-87
2021/03/07 08:56:51;;;;;;;8.50;4.17;;;2.90;85.80;;;;;;4990471;28;20087;-88
2021/03/07 08:59:17;;;;;;;6.20;3.13;;;2.90;85.60;;;;;;4987337;28;20304;-88
2021/03/07 09:01:48;;;;;;;6.82;3.67;;;3.00;85.30;;;;;;4980778;28;20035;-87
2021/03/07 09:04:14;;;;;;;11.48;4.22;;;3.00;85.30;;;;;;4998303;28;20037;-87
2021/03/07 09:06:44;;;;;;;6.45;4.18;;;3.10;85.20;;;;;;4961593;28;20403;-87
2021/03/07 09:09:16;;;;;;;7.05;4.40;;;3.10;84.80;;;;;;4960413;28;20078;-88
2021/03/07 09:12:00;;;;;;;7.80;4.30;;;3.20;84.70;;;;;;4977393;28;20049;-88
2021/03/07 09:14:31;;;;;;;7.22;4.57;;;3.20;84.50;;;;;;4989005;28;20092;-87
2021/03/07 09:16:57;;;;;;;7.13;4.93;;;3.20;84.30;;;;;;4987707;28;20046;-85
2021/03/07 09:19:31;;;;;;;5.78;4.80;;;3.30;84.00;;;;;;4981437;28;20080;-90
2021/03/07 09:22:18;;;;;;;10.30;4.80;;;3.30;83.60;;;;;;5005227;28;20038;-87
2021/03/07 09:24:53;;;;;;;7.15;4.32;;;3.30;83.20;;;;;;4992053;28;20030;-86
2021/03/07 09:27:19;;;;;;;10.35;4.93;;;3.40;83.00;;;;;;4990620;28;20099;-86
2021/03/07 09:30:07;;;;;;;8.88;4.50;;;3.40;82.70;;;;;;4977155;28;20045;-86
2021/03/07 09:32:36;;;;;;;5.82;4.15;;;3.40;82.20;;;;;;4986647;28;20421;-86
2021/03/07 09:35:20;;;;;;;7.32;4.35;;;3.40;82.00;;;;;;4994451;28;20049;-84
2021/03/07 09:37:58;;;;;;;8.70;4.63;;;3.40;81.70;;;;;;4996013;28;20034;-85
2021/03/07 09:40:26;;;;;;;7.97;4.72;;;3.50;81.70;;;;;;4990991;28;20050;-85
2021/03/07 09:42:59;;;;;;;7.95;4.60;;;3.50;81.20;;;;;;4975582;28;20100;-87
2021/03/07 09:45:26;;;;;;;8.10;4.85;;;3.50;81.00;;;;;;4990094;28;20034;-86
2021/03/07 09:47:54;;;;;;;6.78;4.60;;;3.50;80.90;;;;;;4976445;28;20149;-87
2021/03/07 09:50:23;;;;;;;11.93;4.82;;;3.60;80.90;;;;;;4993983;28;20038;-87
2021/03/07 09:52:49;;;;;;;6.40;4.97;;;3.60;80.70;;;;;;4986674;28;20478;-86
2021/03/07 09:55:31;;;;;;;8.13;5.50;;;3.60;80.90;;;;;;4987848;28;20031;-87
2021/03/07 09:58:02;;;;;;;8.98;5.45;;;3.70;80.30;;;;;;4989396;28;20034;-85
2021/03/07 10:00:29;;;;;;;11.45;5.97;;;3.70;80.50;;;;;;4995356;28;20033;-85
2021/03/07 10:02:55;;;;;;;12.20;6.60;;;3.80;79.90;;;;;;4988618;28;20434;-86
2021/03/07 10:05:22;;;;;;;8.95;6.32;;;3.80;79.70;;;;;;4971873;28;20030;-85
2021/03/07 10:07:47;;;;;;;12.45;6.40;;;3.80;78.90;;;;;;4991545;28;20495;-86
2021/03/07 10:10:21;;;;;;;9.45;6.85;;;3.90;79.10;;;;;;4979008;28;20150;-87
2021/03/07 10:13:00;;;;;;;10.52;6.10;;;3.90;79.10;;;;;;4982430;28;20035;-85
2021/03/07 10:15:28;;;;;;;10.80;6.07;;;4.00;78.50;;;;;;4997963;28;20505;-84
2021/03/07 10:18:00;;;;;;;15.27;6.40;;;4.00;78.40;;;;;;4997592;28;20073;-85
2021/03/07 10:20:34;;;;;;;11.50;6.60;;;4.10;77.90;;;;;;4998297;28;20089;-87
2021/03/07 10:23:00;;;;;;;10.70;6.43;;;4.10;77.10;;;;;;4995809;28;20049;-85
2021/03/07 10:25:35;;;;;;;8.23;6.05;;;4.20;77.50;;;;;;4996837;28;20420;-86
2021/03/07 10:28:20;;;;;;;8.73;6.22;;;4.30;77.40;;;;;;4993074;28;20038;-83
2021/03/07 10:30:47;;;;;;;8.73;6.30;;;4.40;75.50;;;;;;4994471;28;20034;-84
2021/03/07 10:33:29;;;;;;;12.57;7.03;;;4.50;76.20;;;;;;4967698;28;20166;-83
2021/03/07 10:36:08;;;;;;;10.70;7.70;;;4.70;75.80;;;;;;4993067;28;20040;-83
2021/03/07 10:38:37;;;;;;;11.98;7.60;;;4.80;74.90;;;;;;4986415;28;20057;-83
2021/03/07 10:41:31;;;;;;;15.30;8.00;;;4.90;74.70;;;;;;4995427;28;20489;-86
2021/03/07 10:43:59;;;;;;;10.82;8.05;;;4.90;73.30;;;;;;4997147;28;20491;-82
2021/03/07 10:46:52;;;;;;;11.45;7.70;;;5.00;73.90;;;;;;4995342;28;20127;-85
2021/03/07 10:49:19;;;;;;;11.10;8.00;;;5.10;72.30;;;;;;4997107;28;20089;-84
2021/03/07 10:51:45;;;;;;;10.50;7.68;;;5.10;72.70;;;;;;4999019;28;20030;-85
2021/03/07 10:54:11;;;;;;;14.18;8.43;;;5.10;73.50;;;;;;4984666;28;20037;-84
2021/03/07 10:56:40;;;;;;;14.07;9.15;;;5.20;73.60;;;;;;4992205;28;20226;-82
2021/03/07 10:59:06;;;;;;;11.98;8.95;;;5.30;72.90;;;;;;4980167;28;20320;-84
2021/03/07 11:01:32;;;;;;;13.55;9.20;;;5.40;72.10;;;;;;4963751;28;20101;-84
2021/03/07 11:03:58;;;;;;;13.02;9.00;;;5.40;71.70;;;;;;4978821;28;20045;-85
2021/03/07 11:06:24;;;;;;;19.45;8.85;;;5.40;71.00;;;;;;4982517;28;20160;-85
2021/03/07 11:08:51;;;;;;;11.45;8.38;;;5.50;70.70;;;;;;4979765;28;20077;-83
2021/03/07 11:11:18;;;;;;;12.73;8.98;;;5.50;70.60;;;;;;4992048;28;20061;-86
2021/03/07 11:13:44;;;;;;;13.73;8.68;;;5.50;70.70;;;;;;4984301;28;20034;-84
2021/03/07 11:16:11;;;;;;;12.55;8.65;;;5.60;70.10;;;;;;4999045;28;20042;-84
2021/03/07 11:18:37;;;;;;;14.95;8.50;;;5.60;69.90;;;;;;4980765;28;20042;-83
2021/03/07 11:21:06;;;;;;;11.32;8.57;;;5.70;69.00;;;;;;4993827;28;20038;-84
2021/03/07 11:23:34;;;;;;;11.77;8.18;;;5.80;69.40;;;;;;4992003;28;20065;-85
2021/03/07 11:26:01;;;;;;;15.38;8.57;;;5.80;69.00;;;;;;5014629;28;20652;-84
2021/03/07 11:28:27;;;;;;;15.27;8.40;;;5.90;67.90;;;;;;4981208;28;20552;-83
2021/03/07 11:30:52;;;;;;;13.90;9.77;;;5.90;67.80;;;;;;4979541;28;20045;-85
2021/03/07 11:33:19;;;;;;;18.50;11.20;;;6.00;68.00;;;;;;4964633;28;20044;-84
2021/03/07 11:35:45;;;;;;;13.52;9.35;;;6.10;68.70;;;;;;4965086;28;20404;-82
2021/03/07 11:38:11;;;;;;;17.95;11.45;;;6.20;67.80;;;;;;4979636;28;20038;-84
2021/03/07 11:40:38;;;;;;;21.38;12.48;;;6.30;67.40;;;;;;4968309;28;20045;-84
2021/03/07 11:43:04;;;;;;;14.60;9.90;;;6.40;67.30;;;;;;4966012;28;20131;-82
2021/03/07 11:45:30;;;;;;;20.35;12.35;;;6.40;66.50;;;;;;4994421;28;20030;-82
2021/03/07 11:47:56;;;;;;;15.15;9.68;;;6.40;67.10;;;;;;4981822;28;20040;-84
2021/03/07 11:50:22;;;;;;;19.50;11.38;;;6.50;66.70;;;;;;4964558;28;20729;-85
2021/03/07 11:52:48;;;;;;;15.52;11.05;;;6.50;66.00;;;;;;4996739;28;20040;-85
2021/03/07 11:55:14;;;;;;;18.60;11.98;;;6.50;66.20;;;;;;4966902;28;20030;-84
2021/03/07 11:57:39;;;;;;;17.92;11.63;;;6.50;66.00;;;;;;4990260;28;20548;-85
2021/03/07 12:00:07;;;;;;;16.52;11.80;;;6.50;65.70;;;;;;4963385;28;20508;-84
2021/03/07 12:02:34;;;;;;;15.23;10.60;;;6.60;66.50;;;;;;4993497;28;20515;-84
2021/03/07 12:05:00;;;;;;;17.45;11.38;;;6.50;66.10;;;;;;4990413;28;20038;-86
2021/03/07 12:07:25;;;;;;;18.02;11.10;;;6.50;65.70;;;;;;4989227;28;20038;-86
2021/03/07 12:09:51;;;;;;;16.40;11.38;;;6.50;66.30;;;;;;4990686;28;20417;-84
2021/03/07 12:12:20;;;;;;;16.00;10.70;;;6.50;66.80;;;;;;4956424;28;20879;-85
2021/03/07 12:14:46;;;;;;;17.35;11.50;;;6.60;66.00;;;;;;4977870;28;20228;-83
2021/03/07 12:17:12;;;;;;;16.63;10.93;;;6.60;66.40;;;;;;4969739;28;20555;-84
2021/03/07 12:19:38;;;;;;;16.33;11.02;;;6.60;66.50;;;;;;4976389;28;20311;-84
2021/03/07 12:22:04;;;;;;;15.18;11.40;;;6.60;66.30;;;;;;4986997;28;20037;-84
2021/03/07 12:24:30;;;;;;;17.75;10.63;;;6.60;65.50;;;;;;4971778;28;20037;-83
2021/03/07 12:27:05;;;;;;;14.07;10.27;;;6.50;66.10;;;;;;4972706;28;20033;-83
2021/03/07 12:29:35;;;;;;;16.90;10.63;;;6.60;65.70;;;;;;4978156;28;20068;-82
2021/03/07 12:32:01;;;;;;;17.70;10.93;;;6.50;65.70;;;;;;4983986;28;20050;-84
2021/03/07 12:34:27;;;;;;;16.67;10.40;;;6.50;65.90;;;;;;5009297;28;20152;-85
2021/03/07 12:36:53;;;;;;;17.50;11.30;;;6.60;65.40;;;;;;4976414;28;20192;-83
2021/03/07 12:39:20;;;;;;;15.15;10.93;;;6.50;65.50;;;;;;5006338;28;20175;-84
2021/03/07 12:41:46;;;;;;;18.00;11.18;;;6.50;65.10;;;;;;4982134;28;20049;-83
2021/03/07 12:44:12;;;;;;;15.80;10.70;;;6.50;65.10;;;;;;4968287;28;20518;-84
2021/03/07 12:46:38;;;;;;;18.13;11.48;;;6.50;65.60;;;;;;4999111;28;20021;-85
2021/03/07 12:49:07;;;;;;;17.63;10.40;;;6.50;65.00;;;;;;4968090;28;20040;-86
2021/03/07 12:51:33;;;;;;;15.52;11.02;;;6.60;64.80;;;;;;4983789;28;20030;-84
2021/03/07 12:53:59;;;;;;;16.67;10.90;;;6.60;65.10;;;;;;4987492;28;20033;-85
2021/03/07 12:56:26;;;;;;;17.13;11.10;;;6.60;64.70;;;;;;4979783;28;20101;-83
2021/03/07 12:58:52;;;;;;;19.55;11.80;;;6.60;64.70;;;;;;4998407;28;20041;-85
2021/03/07 13:01:20;;;;;;;15.82;11.57;;;6.50;65.00;;;;;;4994317;28;21886;-86